Bow, United Kingdom
Current Conditions -  °F | °C
As of 8:20 AM on Saturday 25 Oct 2014 (Local Time) from EGLC Reporting Station
Broken Clouds Broken Clouds  
Wind Chill: 52°   Ceiling: 4000
Heat Index: 52°   Visibility: 6mi
Dew Point: 46°   Wind: 8mph
Humidity: 82%   Direction: 260°W
Pressure: 30.06"   Gusts: NA
Location:  51.53°N, 0.03°W
Report Text: EGLC 250720Z 26007KT 9999 BKN040 11/08 Q1018
Loading
Personal Weather Stations






























Interactive Weather Map New forecast layout! Learn more

10-Day Weather Forecast

Advertisements
Track Severe Weather on mobile